Time;durP1;ratioP1;P1;durP2;ratioP2;P2;SDS_P1;SDS_P2;PMS_P1;PMS_P2;Temp;Humidity;BMP_temperature;BMP_pressure;BME280_temperature;BME280_humidity;BME280_pressure;Samples;Min_cycle;Max_cycle;Signal;HPM_P1;HPM_P2
2021/12/04 00:07:38;;;;;;;2.38;1.20;;;14.90;44.60;;;;;;20741285;28;20540;-81
2021/12/04 00:17:39;;;;;;;1.90;1.10;;;14.90;44.70;;;;;;20740740;28;20058;-82
2021/12/04 00:27:40;;;;;;;1.77;1.20;;;14.80;44.70;;;;;;20741411;28;20044;-81
2021/12/04 00:58:11;;;;;;;2.13;0.88;;;14.70;44.90;;;;;;20747230;28;20069;-81
2021/12/04 01:08:12;;;;;;;1.35;1.20;;;14.70;45.00;;;;;;20726991;28;20476;-81
2021/12/04 01:18:13;;;;;;;1.50;0.75;;;14.70;45.10;;;;;;20709981;28;20057;-81
2021/12/04 01:28:14;;;;;;;4.05;1.45;;;14.60;45.20;;;;;;20741194;28;20033;-82
2021/12/04 01:38:14;;;;;;;3.70;1.38;;;14.70;45.30;;;;;;20707858;28;20040;-81
2021/12/04 01:48:18;;;;;;;1.98;0.80;;;14.60;45.40;;;;;;20722480;28;20049;-82
2021/12/04 01:58:20;;;;;;;2.97;1.02;;;14.60;45.40;;;;;;20722997;28;20108;-81
2021/12/04 02:08:22;;;;;;;1.15;0.90;;;14.60;45.50;;;;;;20737007;28;20034;-81
2021/12/04 02:18:23;;;;;;;1.38;0.55;;;14.50;45.50;;;;;;20688907;28;20407;-81
2021/12/04 02:28:24;;;;;;;2.03;0.95;;;14.50;45.60;;;;;;20704511;28;20037;-81
2021/12/04 02:38:26;;;;;;;2.57;0.90;;;14.50;45.70;;;;;;20687398;28;20423;-81
2021/12/04 02:48:26;;;;;;;1.05;0.63;;;14.40;45.70;;;;;;20702647;28;20296;-82
2021/12/04 02:58:27;;;;;;;3.58;1.40;;;14.40;45.90;;;;;;20701165;28;20042;-82
2021/12/04 03:08:30;;;;;;;1.13;0.70;;;14.40;46.00;;;;;;20717154;28;20112;-82
2021/12/04 03:18:31;;;;;;;2.47;0.90;;;14.30;46.10;;;;;;20700812;28;20135;-80
2021/12/04 03:28:32;;;;;;;2.33;0.82;;;14.30;46.20;;;;;;20700121;28;20125;-82
2021/12/04 03:48:54;;;;;;;1.73;0.75;;;14.30;46.50;;;;;;20704228;28;20037;-81
2021/12/04 03:58:55;;;;;;;1.58;1.02;;;14.20;46.50;;;;;;20714235;28;20056;-82
2021/12/04 04:08:58;;;;;;;1.45;1.10;;;14.20;46.70;;;;;;20696068;28;20061;-82
2021/12/04 04:19:00;;;;;;;1.85;1.42;;;14.20;46.80;;;;;;20683298;28;20050;-81
2021/12/04 04:29:01;;;;;;;2.72;1.85;;;14.10;46.80;;;;;;20704728;28;20037;-81
2021/12/04 05:19:53;;;;;;;1.40;0.77;;;14.70;46.20;;;;;;20727043;28;20468;-81
2021/12/04 05:29:57;;;;;;;1.50;0.85;;;15.80;44.20;;;;;;20740587;28;20034;-82
2021/12/04 05:39:57;;;;;;;2.03;1.00;;;16.90;42.20;;;;;;20706862;28;20048;-82
2021/12/04 05:50:14;;;;;;;1.63;0.77;;;18.20;39.90;;;;;;20722875;28;20042;-81
2021/12/04 06:00:16;;;;;;;;;;;19.20;38.10;;;;;;20740685;28;20125;-82
2021/12/04 06:10:17;;;;;;;0.88;0.75;;;19.80;36.90;;;;;;20721451;28;19909;-81
2021/12/04 06:30:39;;;;;;;1.58;0.95;;;20.40;35.60;;;;;;20721776;28;20140;-80
2021/12/04 06:40:39;;;;;;;1.20;0.50;;;20.50;35.10;;;;;;20718584;28;20487;-82
2021/12/04 06:50:48;;;;;;;0.77;0.70;;;20.20;35.40;;;;;;20718051;28;20054;-81
2021/12/04 07:00:50;;;;;;;2.10;0.70;;;19.10;36.90;;;;;;20734921;28;20030;-81
2021/12/04 07:10:52;;;;;;;1.33;0.75;;;18.00;38.70;;;;;;20716066;28;20074;-80
2021/12/04 07:20:54;;;;;;;1.40;0.70;;;17.20;40.20;;;;;;20715836;28;20064;-80
2021/12/04 07:30:56;;;;;;;1.50;0.90;;;16.50;41.30;;;;;;20698651;28;20128;-80
2021/12/04 07:40:57;;;;;;;1.90;0.90;;;16.20;42.10;;;;;;20712270;28;20065;-82
2021/12/04 07:51:01;;;;;;;1.75;0.80;;;16.10;42.60;;;;;;20707627;28;20053;-79
2021/12/04 08:01:02;;;;;;;1.88;1.17;;;15.90;43.00;;;;;;20754108;28;20427;-75
2021/12/04 08:11:04;;;;;;;3.33;1.38;;;15.80;43.40;;;;;;20739431;28;20053;-76
2021/12/04 08:21:05;;;;;;;1.85;0.95;;;15.80;43.70;;;;;;20723415;28;20033;-73
2021/12/04 08:31:05;;;;;;;2.03;0.98;;;15.70;43.70;;;;;;20738171;28;20124;-74
2021/12/04 08:41:06;;;;;;;1.00;0.50;;;15.70;43.90;;;;;;20737073;28;20057;-72
2021/12/04 08:51:07;;;;;;;1.25;0.73;;;15.70;44.00;;;;;;20752319;28;20296;-70
2021/12/04 09:01:13;;;;;;;1.00;0.65;;;15.70;44.00;;;;;;20684679;28;20066;-73
2021/12/04 09:11:18;;;;;;;1.00;0.82;;;15.70;44.10;;;;;;20646254;28;20404;-72
2021/12/04 09:21:19;;;;;;;6.82;1.20;;;15.70;44.40;;;;;;20711735;28;20045;-71
2021/12/04 09:31:55;;;;;;;3.35;1.30;;;15.70;44.80;;;;;;20715582;28;20265;-73
2021/12/04 10:23:30;;;;;;;8.18;2.67;;;15.60;45.20;;;;;;20661320;28;20053;-72
2021/12/04 10:33:26;;;;;;;3.35;1.77;;;15.60;45.50;;;;;;20713556;28;20060;-78
2021/12/04 10:43:31;;;;;;;4.53;2.17;;;15.50;45.50;;;;;;20678612;28;20034;-77
2021/12/04 10:53:35;;;;;;;7.45;2.17;;;15.50;45.50;;;;;;20725119;28;20052;-75
2021/12/04 11:03:43;;;;;;;5.32;2.00;;;15.40;45.60;;;;;;20707768;28;20059;-75
2021/12/04 11:54:56;;;;;;;3.72;1.58;;;19.60;38.60;;;;;;20712067;28;20092;-77
2021/12/04 12:04:57;;;;;;;2.95;1.52;;;20.10;37.50;;;;;;20694555;28;20034;-74
2021/12/04 12:15:03;;;;;;;3.28;1.58;;;20.30;37.00;;;;;;20677022;28;20153;-75
2021/12/04 12:36:03;;;;;;;4.20;1.23;;;20.40;36.50;;;;;;20678266;28;20042;-76
2021/12/04 12:46:03;;;;;;;1.85;1.10;;;20.50;36.30;;;;;;20697160;28;20050;-76
2021/12/04 12:56:06;;;;;;;1.58;1.08;;;19.60;37.40;;;;;;20708012;28;20083;-77
2021/12/04 13:16:35;;;;;;;2.45;1.27;;;17.70;40.60;;;;;;20712118;28;20065;-76
2021/12/04 13:26:46;;;;;;;1.88;1.05;;;17.10;41.90;;;;;;20705281;28;20099;-76
2021/12/04 13:36:47;;;;;;;1.63;1.00;;;16.80;42.70;;;;;;20704788;28;20081;-76
2021/12/04 13:46:50;;;;;;;1.48;0.90;;;16.70;43.10;;;;;;20737409;28;20099;-77
2021/12/04 13:56:52;;;;;;;1.50;0.70;;;16.60;43.20;;;;;;20704538;28;20396;-78
2021/12/04 14:06:59;;;;;;;1.50;0.90;;;16.60;43.30;;;;;;20733936;28;20057;-78
2021/12/04 14:17:08;;;;;;;1.88;0.93;;;16.60;43.40;;;;;;20719661;28;20052;-76
2021/12/04 14:27:15;;;;;;;1.77;0.73;;;16.70;43.40;;;;;;20717503;28;20040;-76
2021/12/04 14:37:16;;;;;;;1.60;0.80;;;16.70;43.40;;;;;;20732931;28;20420;-78
2021/12/04 14:47:17;;;;;;;0.95;0.68;;;16.70;43.50;;;;;;20743852;28;20037;-75
2021/12/04 14:57:23;;;;;;;1.65;0.90;;;16.70;43.50;;;;;;20713701;28;20042;-75
2021/12/04 15:07:29;;;;;;;1.77;0.80;;;16.60;43.60;;;;;;20713895;28;20068;-74
2021/12/04 15:17:30;;;;;;;1.00;0.60;;;16.60;43.60;;;;;;20714542;28;20049;-72
2021/12/04 15:27:31;;;;;;;0.73;0.60;;;16.60;43.70;;;;;;20728810;28;20038;-76
2021/12/04 15:37:48;;;;;;;1.27;0.75;;;16.60;43.70;;;;;;20694636;28;20091;-74
2021/12/04 15:48:08;;;;;;;0.93;0.70;;;17.00;43.30;;;;;;20713176;28;20446;-76
2021/12/04 15:58:11;;;;;;;0.98;0.52;;;18.10;41.40;;;;;;20710125;28;20045;-74
2021/12/04 16:08:13;;;;;;;0.98;0.63;;;19.30;39.30;;;;;;20696022;28;20041;-75
2021/12/04 16:18:16;;;;;;;1.15;0.63;;;20.00;37.90;;;;;;20710565;28;20125;-77
2021/12/04 16:38:21;;;;;;;2.22;0.60;;;20.50;37.00;;;;;;20707699;28;20042;-76
2021/12/04 16:48:24;;;;;;;0.82;0.80;;;19.40;38.20;;;;;;20722866;28;20068;-79
2021/12/04 16:58:24;;;;;;;1.40;0.60;;;18.50;39.70;;;;;;20714781;28;20396;-81
2021/12/04 17:08:25;;;;;;;1.07;0.67;;;17.60;41.30;;;;;;20691708;28;20037;-77
2021/12/04 17:18:26;;;;;;;1.38;0.60;;;17.00;42.60;;;;;;20741648;28;20834;-79
2021/12/04 17:28:34;;;;;;;1.20;0.73;;;16.50;43.60;;;;;;20709803;28;20038;-80
2021/12/04 17:38:37;;;;;;;1.05;0.60;;;16.20;44.30;;;;;;20688143;28;20105;-80
2021/12/04 17:48:38;;;;;;;0.95;0.82;;;16.00;44.70;;;;;;20712604;28;20060;-76
2021/12/04 17:58:39;;;;;;;0.77;0.50;;;16.00;45.00;;;;;;20713827;28;20034;-77
2021/12/04 18:08:41;;;;;;;1.10;0.60;;;16.10;45.10;;;;;;20697611;28;20413;-77
2021/12/04 18:18:42;;;;;;;3.00;0.93;;;16.10;45.00;;;;;;20713522;28;20088;-75
2021/12/04 18:28:42;;;;;;;0.88;0.77;;;16.20;45.10;;;;;;20715445;28;20113;-78
2021/12/04 18:38:43;;;;;;;0.57;0.57;;;16.20;45.00;;;;;;20733922;28;20030;-74
2021/12/04 18:48:44;;;;;;;0.93;0.70;;;16.20;45.00;;;;;;20730647;28;20288;-77
2021/12/04 18:58:44;;;;;;;0.82;0.57;;;16.20;45.00;;;;;;20729556;28;20686;-77
2021/12/04 19:08:47;;;;;;;1.42;0.75;;;16.20;45.00;;;;;;20727996;28;20033;-77
2021/12/04 19:18:47;;;;;;;2.22;0.80;;;16.10;45.10;;;;;;20711039;28;20034;-77
2021/12/04 19:28:49;;;;;;;0.60;0.50;;;16.10;45.10;;;;;;20710435;28;20404;-77
2021/12/04 19:49:58;;;;;;;1.08;0.60;;;16.10;45.30;;;;;;20711988;28;20510;-77
2021/12/04 19:59:37;;;;;;;1.75;0.85;;;16.00;45.40;;;;;;20717112;28;20038;-77
2021/12/04 20:19:59;;;;;;;2.10;1.13;;;15.90;45.60;;;;;;20727285;28;20049;-78
2021/12/04 20:40:34;;;;;;;2.95;1.17;;;15.90;45.70;;;;;;20740874;28;20110;-78
2021/12/04 21:11:53;;;;;;;2.05;1.20;;;15.80;45.90;;;;;;20741347;28;20030;-77
2021/12/04 21:52:54;;;;;;;2.75;1.45;;;15.60;46.00;;;;;;20728131;28;20057;-77
2021/12/04 23:15:16;;;;;;;2.42;1.23;;;15.40;46.20;;;;;;20715060;28;20128;-77
2021/12/04 23:35:43;;;;;;;2.08;1.63;;;15.40;46.30;;;;;;20713649;28;19914;-77
